createdAt,value
2022-08-30T00:02:55.045Z,22.03
2022-08-30T00:05:56.622Z,22.00
2022-08-30T00:08:58.193Z,21.95
2022-08-30T00:12:00.079Z,21.80
2022-08-30T00:15:02.170Z,21.80
2022-08-30T00:18:03.921Z,21.82
2022-08-30T00:21:06.649Z,21.98
2022-08-30T00:24:08.087Z,21.95
2022-08-30T00:27:09.575Z,22.12
2022-08-30T00:30:12.147Z,22.02
2022-08-30T00:33:14.914Z,22.21
2022-08-30T00:36:16.469Z,21.96
2022-08-30T00:39:17.902Z,22.09
2022-08-30T00:42:21.411Z,22.08
2022-08-30T00:45:26.955Z,22.10
2022-08-30T00:48:28.403Z,22.10
2022-08-30T00:51:31.736Z,22.02
2022-08-30T00:54:36.078Z,21.99
2022-08-30T00:57:37.701Z,21.68
2022-08-30T01:00:40.011Z,21.33
2022-08-30T01:03:43.397Z,21.08
2022-08-30T01:06:44.793Z,20.77
2022-08-30T01:09:46.281Z,20.33
2022-08-30T01:12:48.498Z,20.24
2022-08-30T01:15:51.235Z,19.89
2022-08-30T01:18:57.065Z,19.61
2022-08-30T01:22:02.958Z,19.68
2022-08-30T01:25:08.268Z,19.50
2022-08-30T01:28:14.198Z,19.04
2022-08-30T01:31:16.336Z,18.80
2022-08-30T01:34:18.142Z,18.59
2022-08-30T01:37:23.776Z,18.48
2022-08-30T01:40:25.520Z,18.52
2022-08-30T01:43:27.736Z,18.39
2022-08-30T01:46:36.620Z,18.39
2022-08-30T01:49:38.891Z,18.22
2022-08-30T01:52:40.346Z,18.19
2022-08-30T01:55:42.410Z,18.15
2022-08-30T01:58:44.408Z,18.16
2022-08-30T02:01:45.951Z,17.96
2022-08-30T02:04:47.478Z,17.66
2022-08-30T02:07:48.931Z,17.82
2022-08-30T02:10:50.428Z,17.66
2022-08-30T02:13:51.891Z,17.66
2022-08-30T02:16:53.414Z,17.69
2022-08-30T02:19:55.221Z,17.53
2022-08-30T02:22:59.683Z,17.48
2022-08-30T02:26:03.681Z,17.55
2022-08-30T02:29:06.026Z,17.43
2022-08-30T02:32:07.468Z,17.28
2022-08-30T02:35:09.492Z,17.43
2022-08-30T02:38:11.392Z,17.23
2022-08-30T02:41:13.250Z,17.37
2022-08-30T02:44:15.252Z,17.13
2022-08-30T02:47:16.799Z,17.14
2022-08-30T02:50:18.463Z,17.00
2022-08-30T02:53:21.103Z,17.01
2022-08-30T02:56:22.573Z,17.27
2022-08-30T02:59:23.977Z,17.25
2022-08-30T03:02:25.974Z,16.96
2022-08-30T03:05:27.699Z,16.63
2022-08-30T03:08:30.034Z,16.57
2022-08-30T03:11:31.671Z,16.55
2022-08-30T03:14:35.448Z,16.68
2022-08-30T03:17:36.953Z,16.75
2022-08-30T03:20:38.725Z,16.57
2022-08-30T03:23:41.140Z,16.57
2022-08-30T03:26:46.171Z,16.67
2022-08-30T03:29:48.075Z,16.71
2022-08-30T03:32:49.547Z,16.51
2022-08-30T03:35:52.904Z,16.61
2022-08-30T03:38:54.402Z,16.37
2022-08-30T03:41:55.837Z,16.23
2022-08-30T03:44:57.218Z,16.34
2022-08-30T03:47:59.064Z,16.17
2022-08-30T03:51:00.532Z,16.08
2022-08-30T03:54:02.781Z,16.01
2022-08-30T03:57:04.545Z,16.16
2022-08-30T04:00:07.367Z,15.95
2022-08-30T04:03:09.266Z,16.22
2022-08-30T04:06:10.774Z,16.26
2022-08-30T04:09:12.252Z,16.16
2022-08-30T04:12:13.691Z,16.14
2022-08-30T04:15:20.400Z,15.92
2022-08-30T04:18:22.028Z,15.80
2022-08-30T04:21:23.517Z,16.04
2022-08-30T04:24:25.387Z,15.88
2022-08-30T04:27:26.802Z,15.77
2022-08-30T04:30:28.280Z,16.05
2022-08-30T04:33:29.750Z,15.84
2022-08-30T04:36:36.287Z,16.00
2022-08-30T04:39:37.741Z,15.93
2022-08-30T04:42:39.678Z,16.04
2022-08-30T04:45:42.037Z,15.94
2022-08-30T04:48:43.876Z,15.90
2022-08-30T04:51:46.220Z,15.84
2022-08-30T04:54:47.652Z,15.64
2022-08-30T04:57:49.460Z,15.73
2022-08-30T05:00:51.066Z,15.83
2022-08-30T05:03:54.565Z,15.77
2022-08-30T05:06:56.675Z,15.64
2022-08-30T05:09:58.425Z,15.51
2022-08-30T05:13:00.468Z,15.34
2022-08-30T05:16:03.784Z,15.51
2022-08-30T05:19:05.472Z,15.60
2022-08-30T05:22:06.909Z,15.57
2022-08-30T05:25:08.989Z,15.84
2022-08-30T05:28:10.568Z,15.78
2022-08-30T05:31:33.034Z,15.80
2022-08-30T05:34:34.739Z,15.93
2022-08-30T05:37:36.806Z,15.89
2022-08-30T05:40:44.040Z,16.03
2022-08-30T05:43:45.550Z,16.12
2022-08-30T05:46:47.909Z,16.09
2022-08-30T05:49:49.579Z,16.09
2022-08-30T05:52:50.991Z,16.18
2022-08-30T05:55:54.653Z,16.30
2022-08-30T05:58:56.076Z,15.96
2022-08-30T06:01:58.512Z,15.99
2022-08-30T06:05:02.514Z,16.04
2022-08-30T06:08:04.685Z,16.22
2022-08-30T06:11:06.147Z,16.25
2022-08-30T06:14:08.117Z,16.30
2022-08-30T06:17:10.602Z,16.10
2022-08-30T06:20:12.286Z,16.11
2022-08-30T06:23:14.330Z,16.24
2022-08-30T06:26:16.644Z,16.33
2022-08-30T06:29:21.193Z,16.46
2022-08-30T06:32:22.755Z,16.57
2022-08-30T06:35:25.454Z,16.42
2022-08-30T06:38:27.587Z,16.52
2022-08-30T06:41:32.085Z,16.91
2022-08-30T06:44:33.472Z,16.86
2022-08-30T06:47:35.010Z,17.01
2022-08-30T06:50:36.430Z,17.15
2022-08-30T06:53:39.301Z,17.31
2022-08-30T06:56:57.566Z,17.35
2022-08-30T06:59:59.848Z,17.68
2022-08-30T07:03:02.509Z,17.82
2022-08-30T07:06:04.468Z,17.72
2022-08-30T07:09:06.251Z,17.83
2022-08-30T07:12:08.621Z,17.86
2022-08-30T07:15:10.564Z,18.00
2022-08-30T07:18:31.907Z,18.13
2022-08-30T07:21:45.666Z,18.41
2022-08-30T07:24:47.396Z,18.58
2022-08-30T07:27:51.808Z,18.96
2022-08-30T07:30:53.268Z,19.18
2022-08-30T07:33:54.978Z,19.28
2022-08-30T07:36:56.497Z,19.34
2022-08-30T07:39:58.092Z,19.57
2022-08-30T07:43:02.156Z,19.67
2022-08-30T07:46:07.634Z,19.85
2022-08-30T07:49:11.528Z,20.02
2022-08-30T07:52:13.106Z,20.21
2022-08-30T07:55:15.065Z,20.32
2022-08-30T07:58:16.851Z,20.34
2022-08-30T08:01:19.646Z,20.49
2022-08-30T08:04:21.223Z,20.73
2022-08-30T08:07:22.801Z,20.88
2022-08-30T08:10:24.304Z,21.08
2022-08-30T08:13:27.914Z,21.33
2022-08-30T08:16:30.958Z,21.62
2022-08-30T08:19:32.478Z,21.78
2022-08-30T08:22:36.867Z,22.00
2022-08-30T08:25:41.590Z,22.24
2022-08-30T08:28:44.970Z,22.24
2022-08-30T08:31:47.081Z,22.63
2022-08-30T08:34:48.935Z,22.85
2022-08-30T08:37:50.409Z,22.92
2022-08-30T08:41:15.046Z,23.20
2022-08-30T08:44:39.358Z,23.34
2022-08-30T08:48:06.266Z,23.61
2022-08-30T08:51:30.607Z,23.74
2022-08-30T08:54:49.955Z,23.77
2022-08-30T08:57:52.488Z,23.98
2022-08-30T09:00:57.223Z,24.21
2022-08-30T09:04:03.566Z,24.66
2022-08-30T09:07:14.478Z,24.77
2022-08-30T09:10:18.370Z,24.77
2022-08-30T09:13:25.465Z,24.94
2022-08-30T09:16:47.102Z,25.07
2022-08-30T09:19:59.982Z,25.22
2022-08-30T09:23:24.230Z,25.32
2022-08-30T09:26:32.944Z,25.40
2022-08-30T09:29:34.548Z,25.63
2022-08-30T09:32:42.846Z,25.74
2022-08-30T09:35:47.643Z,25.82
2022-08-30T09:38:59.051Z,25.70
2022-08-30T09:42:15.196Z,25.94
2022-08-30T09:45:31.806Z,26.17
2022-08-30T09:48:35.251Z,26.36
2022-08-30T09:51:59.042Z,26.58
2022-08-30T09:55:29.149Z,26.62
2022-08-30T09:58:38.920Z,26.62
2022-08-30T10:01:46.220Z,26.65
2022-08-30T10:05:05.469Z,26.71
2022-08-30T10:08:16.554Z,26.81
2022-08-30T10:11:45.999Z,27.05
2022-08-30T10:15:09.240Z,26.95
2022-08-30T10:18:26.585Z,27.12
2022-08-30T10:21:39.227Z,27.48
2022-08-30T10:24:50.312Z,27.48
2022-08-30T10:28:00.684Z,27.62
2022-08-30T10:31:08.128Z,27.73
2022-08-30T10:34:17.763Z,27.73
2022-08-30T10:37:31.488Z,28.03
2022-08-30T10:40:56.498Z,28.58
2022-08-30T10:44:11.938Z,28.63
2022-08-30T10:47:36.984Z,28.08
2022-08-30T10:50:48.169Z,27.98
2022-08-30T10:54:34.090Z,28.37
2022-08-30T10:57:35.901Z,28.29
2022-08-30T11:01:06.031Z,28.23
2022-08-30T11:04:31.935Z,28.53
2022-08-30T11:07:58.188Z,29.35
2022-08-30T11:11:13.011Z,28.79
2022-08-30T11:14:17.477Z,28.37
2022-08-30T11:17:31.149Z,28.55
2022-08-30T11:20:41.961Z,28.69
2022-08-30T11:24:17.922Z,28.76
2022-08-30T11:27:44.058Z,28.70
2022-08-30T11:30:46.945Z,28.97
2022-08-30T11:33:51.350Z,28.69
2022-08-30T11:36:52.749Z,29.03
2022-08-30T11:39:56.125Z,29.38
2022-08-30T11:42:57.555Z,29.39
2022-08-30T11:46:24.113Z,29.55
2022-08-30T11:49:26.013Z,30.05
2022-08-30T11:52:46.755Z,30.01
2022-08-30T11:56:08.564Z,30.50
2022-08-30T11:59:23.941Z,30.47
2022-08-30T12:03:03.670Z,30.46
2022-08-30T12:06:07.790Z,30.68
2022-08-30T12:09:12.577Z,30.63
2022-08-30T12:12:26.515Z,30.18
2022-08-30T12:15:56.237Z,29.74
2022-08-30T12:19:10.305Z,30.45
2022-08-30T12:22:17.882Z,29.62
2022-08-30T12:25:26.498Z,29.42
2022-08-30T12:28:27.988Z,29.17
2022-08-30T12:31:29.495Z,29.76
2022-08-30T12:34:34.077Z,29.70
2022-08-30T12:37:38.573Z,29.88
2022-08-30T12:40:56.398Z,29.64
2022-08-30T12:43:59.041Z,29.59
2022-08-30T12:47:04.019Z,29.16
2022-08-30T12:50:06.885Z,29.84
2022-08-30T12:53:14.387Z,30.37
2022-08-30T12:56:21.204Z,29.63
2022-08-30T12:59:48.852Z,29.27
2022-08-30T13:02:57.276Z,29.69
2022-08-30T13:05:59.525Z,29.75
2022-08-30T13:09:04.369Z,29.39
2022-08-30T13:12:10.728Z,29.00
2022-08-30T13:15:17.320Z,28.99
2022-08-30T13:18:30.089Z,30.02
2022-08-30T13:21:34.172Z,30.02
2022-08-30T13:24:35.610Z,29.97
2022-08-30T13:27:38.987Z,29.74
2022-08-30T13:30:41.446Z,29.38
2022-08-30T13:33:45.730Z,29.31
2022-08-30T13:36:50.768Z,28.95
2022-08-30T13:39:52.512Z,29.31
2022-08-30T13:42:54.721Z,30.25
2022-08-30T13:45:58.131Z,30.77
2022-08-30T13:49:05.941Z,30.69
2022-08-30T13:52:24.038Z,30.56
2022-08-30T13:55:25.789Z,30.55
2022-08-30T13:58:27.264Z,30.72
2022-08-30T14:01:30.208Z,31.10
2022-08-30T14:04:51.429Z,31.17
2022-08-30T14:07:52.862Z,30.71
2022-08-30T14:10:55.472Z,30.16
2022-08-30T14:17:18.711Z,30.72
2022-08-30T14:20:20.814Z,31.29
2022-08-30T14:23:22.267Z,31.20
2022-08-30T14:26:33.561Z,31.55
2022-08-30T14:29:36.085Z,31.76
2022-08-30T14:32:37.802Z,31.31
2022-08-30T14:35:39.271Z,31.76
2022-08-30T14:38:40.772Z,32.04
2022-08-30T14:41:46.856Z,32.04
2022-08-30T14:44:56.373Z,32.46
2022-08-30T14:47:58.389Z,31.84
2022-08-30T14:51:00.630Z,31.27
2022-08-30T14:54:02.066Z,31.01
2022-08-30T14:57:03.662Z,30.63
2022-08-30T15:00:08.544Z,30.81
2022-08-30T15:03:11.972Z,30.92
2022-08-30T15:06:13.471Z,31.18
2022-08-30T15:09:19.094Z,31.52
2022-08-30T15:12:24.933Z,31.89
2022-08-30T15:15:26.533Z,31.74
2022-08-30T15:18:27.998Z,31.84
2022-08-30T15:21:39.001Z,31.55
2022-08-30T15:24:40.864Z,31.31
2022-08-30T15:27:42.336Z,31.61
2022-08-30T15:30:44.304Z,31.40
2022-08-30T15:33:46.033Z,31.36
2022-08-30T15:36:48.277Z,31.36
2022-08-30T15:39:52.672Z,30.87
2022-08-30T15:42:54.217Z,30.71
2022-08-30T15:45:56.172Z,30.64
2022-08-30T15:49:04.576Z,30.72
2022-08-30T15:52:06.169Z,30.59
2022-08-30T15:55:10.274Z,30.78
2022-08-30T15:58:11.742Z,30.80
2022-08-30T16:01:14.534Z,30.68
2022-08-30T16:04:18.485Z,30.62
2022-08-30T16:07:20.204Z,30.41
2022-08-30T16:10:21.628Z,30.54
2022-08-30T16:13:23.081Z,30.35
2022-08-30T16:16:27.287Z,30.13
2022-08-30T16:19:29.084Z,29.94
2022-08-30T16:22:30.782Z,29.90
2022-08-30T16:25:40.064Z,29.69
2022-08-30T16:28:42.786Z,29.75
2022-08-30T16:31:45.460Z,29.78
2022-08-30T16:34:49.828Z,29.58
2022-08-30T16:37:51.457Z,29.31
2022-08-30T16:40:53.037Z,29.34
2022-08-30T16:43:55.124Z,29.22
2022-08-30T16:46:57.050Z,29.14
2022-08-30T16:50:01.617Z,29.07
2022-08-30T16:53:03.261Z,29.18
2022-08-30T16:56:09.943Z,28.96
2022-08-30T16:59:13.085Z,28.78
2022-08-30T17:02:14.607Z,28.92
2022-08-30T17:05:16.056Z,29.06
2022-08-30T17:08:17.632Z,28.80
2022-08-30T17:11:20.012Z,28.61
2022-08-30T17:14:28.083Z,28.54
2022-08-30T17:17:30.784Z,28.19
2022-08-30T17:20:33.406Z,28.08
2022-08-30T17:23:36.026Z,27.99
2022-08-30T17:26:39.941Z,27.89
2022-08-30T17:29:41.834Z,27.94
2022-08-30T17:32:43.480Z,27.63
2022-08-30T17:35:45.781Z,27.57
2022-08-30T17:38:48.107Z,27.63
2022-08-30T17:41:51.712Z,27.53
2022-08-30T17:44:54.497Z,27.45
2022-08-30T17:47:56.917Z,27.34
2022-08-30T17:51:00.603Z,26.89
2022-08-30T17:54:02.130Z,26.83
2022-08-30T17:57:10.673Z,26.75
2022-08-30T18:00:15.693Z,26.76
2022-08-30T18:03:17.502Z,26.62
2022-08-30T18:06:19.187Z,26.39
2022-08-30T18:09:22.436Z,26.29
2022-08-30T18:12:23.950Z,26.30
2022-08-30T18:15:28.370Z,26.11
2022-08-30T18:18:30.917Z,26.16
2022-08-30T18:21:34.739Z,25.88
2022-08-30T18:24:36.256Z,25.61
2022-08-30T18:27:39.069Z,25.86
2022-08-30T18:30:42.404Z,25.93
2022-08-30T18:33:44.031Z,25.94
2022-08-30T18:36:45.555Z,25.95
2022-08-30T18:39:48.321Z,25.97
2022-08-30T18:42:51.830Z,26.03
2022-08-30T18:45:54.338Z,26.08
2022-08-30T18:48:55.864Z,26.11
2022-08-30T18:51:58.376Z,26.12
2022-08-30T18:54:59.934Z,26.22
2022-08-30T18:58:02.542Z,26.24
2022-08-30T19:01:04.486Z,26.18
2022-08-30T19:04:06.066Z,26.27
2022-08-30T19:07:09.875Z,26.27
2022-08-30T19:10:15.113Z,26.19
2022-08-30T19:13:22.607Z,26.07
2022-08-30T19:16:25.641Z,25.97
2022-08-30T19:19:27.326Z,25.94
2022-08-30T19:22:39.860Z,25.82
2022-08-30T19:25:51.612Z,25.38
2022-08-30T19:28:54.891Z,25.03
2022-08-30T19:31:56.760Z,24.52
2022-08-30T19:34:58.720Z,24.63
2022-08-30T19:38:00.350Z,24.42
2022-08-30T19:41:03.436Z,24.26
2022-08-30T19:44:06.301Z,24.01
2022-08-30T19:47:08.137Z,24.25
2022-08-30T19:50:09.789Z,24.18
2022-08-30T19:53:11.758Z,23.93
2022-08-30T19:56:13.484Z,24.00
2022-08-30T19:59:15.114Z,23.91
2022-08-30T20:02:18.237Z,24.02
2022-08-30T20:05:21.455Z,24.02
2022-08-30T20:08:23.029Z,23.85
2022-08-30T20:11:24.522Z,23.63
2022-08-30T20:14:26.122Z,24.13
2022-08-30T20:17:37.876Z,24.19
2022-08-30T20:20:49.559Z,24.56
2022-08-30T20:23:51.558Z,24.64
2022-08-30T20:26:53.540Z,24.56
2022-08-30T20:29:55.646Z,24.39
2022-08-30T20:32:57.279Z,24.72
2022-08-30T20:36:02.570Z,24.85
2022-08-30T20:39:09.413Z,24.90
2022-08-30T20:42:10.874Z,25.05
2022-08-30T20:45:16.150Z,24.89
2022-08-30T20:48:18.710Z,24.86
2022-08-30T20:51:23.016Z,24.81
2022-08-30T20:54:25.301Z,24.84
2022-08-30T20:57:26.979Z,24.93
2022-08-30T21:00:28.528Z,24.80
2022-08-30T21:03:33.365Z,24.80
2022-08-30T21:06:37.453Z,24.59
2022-08-30T21:09:39.059Z,24.50
2022-08-30T21:12:40.574Z,24.67
2022-08-30T21:15:45.814Z,24.72
2022-08-30T21:18:47.350Z,24.69
2022-08-30T21:21:48.842Z,24.68
2022-08-30T21:24:52.438Z,24.69
2022-08-30T21:27:54.850Z,24.42
2022-08-30T21:31:11.111Z,24.38
2022-08-30T21:34:17.215Z,24.32
2022-08-30T21:37:19.176Z,24.19
2022-08-30T21:40:21.104Z,24.33
2022-08-30T21:43:22.604Z,24.22
2022-08-30T21:46:25.740Z,24.22
2022-08-30T21:49:27.352Z,24.20
2022-08-30T21:52:28.883Z,24.30
2022-08-30T21:55:30.402Z,24.14
2022-08-30T21:58:31.828Z,24.16
2022-08-30T22:01:34.641Z,23.92
2022-08-30T22:04:41.147Z,24.08
2022-08-30T22:07:42.697Z,23.91
2022-08-30T22:10:44.692Z,23.84
2022-08-30T22:13:48.156Z,23.81
2022-08-30T22:16:49.779Z,23.65
2022-08-30T22:19:51.752Z,23.72
2022-08-30T22:22:53.199Z,23.75
2022-08-30T22:25:54.719Z,23.74
2022-08-30T22:28:56.317Z,23.73
2022-08-30T22:31:58.014Z,23.74
2022-08-30T22:34:59.516Z,23.83
2022-08-30T22:38:01.018Z,23.56
2022-08-30T22:41:02.676Z,23.58
2022-08-30T22:44:04.683Z,23.46
2022-08-30T22:47:06.312Z,23.71
2022-08-30T22:50:08.146Z,23.72
2022-08-30T22:53:09.749Z,23.76
2022-08-30T22:56:14.428Z,23.60
2022-08-30T22:59:15.995Z,23.67
2022-08-30T23:02:17.976Z,23.87
2022-08-30T23:05:22.138Z,23.86
2022-08-30T23:08:24.009Z,23.63
2022-08-30T23:11:26.127Z,23.52
2022-08-30T23:14:27.573Z,23.62
2022-08-30T23:17:29.068Z,23.66
2022-08-30T23:20:34.869Z,23.88
2022-08-30T23:23:54.602Z,23.73
2022-08-30T23:27:14.801Z,23.76
2022-08-30T23:30:34.739Z,23.58
2022-08-30T23:33:54.970Z,23.60
2022-08-30T23:37:15.154Z,23.51
2022-08-30T23:40:35.572Z,23.56
2022-08-30T23:43:56.194Z,23.49
2022-08-30T23:47:16.439Z,23.49
2022-08-30T23:50:36.996Z,23.60
2022-08-30T23:53:57.378Z,23.63
2022-08-30T23:57:17.648Z,23.65
